Aérodrome :
LOGIN :

S'inscrire | Disclaimer

   EN    FR    IT 

 










Légende :    VFR   VFR Marginal   IFR   IFR Intensif   IFR Très Intensif
Visi : 
Plafond : 
>= 8 km
>= 3000ft
5 à 8 km
1000 à 3000 ft
1500m à 5 km
500 à 1000 ft
800 à 1500m
200 à 500 ft
< 800m
< 200 ft
Symboles :   Orages  Brouillard  Fortes neiges  Fortes précipitations  Vent > 20 kt
SIGMETs :   Divers  Orages  Givrage  Turbulence  Onde Orograph.  Cendres Volcan.






- Altitude de l'aérodrome : 885 ft
- Code IATA : BAS


LFSB - Bale-Mulhouse

DERNIER METAR :
  • 100400Z 26006KT 9999 FEW026 SCT053 02/M00 Q1026 NOSIG

METARs EXPIRÉS :
  • 100330Z 27006KT 9999 FEW026 SCT053 02/00 Q1025 NOSIG
  • 100300Z AUTO 29005KT 9999 FEW041/// BKN054/// 04/00 Q1025 NOSIG
  • 100230Z AUTO 35009KT 9999 SCT042/// BKN052/// 04/01 Q1025 TEMPO 26010KT
  • 100200Z AUTO 32008KT 9999 FEW043/// BKN054/// 04/01 Q1024 BECMG 26010KT
  • 100130Z AUTO 27006KT 9999 FEW038/// BKN056/// BKN096/// 05/02 Q1024 NOSIG

TAF TAF LFSB
Valide du 10 à 00h jusqu'au 11 à 00h UTC


092300Z 1000/1024 26010KT 9999 FEW020 BKN040
BECMG 1004/1008 VRB03KT
Météo : +33 3 89 90 31 11



MET'MAP, la Météo Aéronautique d'un coup d'oeil ! - Copyright ORBIFLY Décembre 2007 - Disclaimer

ORBIFLY MET'MAP TEAM :

Programmation & Développement : Alexandra Zaïnal
Sur une idée originale de : Baudouin d'Aumeries
Assistance à la programmation : Marc-Olivier Méhu
Soutien technique & logistique : Manuel Goepfert

Contact : metmap@orbifly.com




SOURCES & CREDITS :

   NOAA